Time;durP1;ratioP1;P1;durP2;ratioP2;P2;SDS_P1;SDS_P2;PMS_P1;PMS_P2;Temp;Humidity;BMP_temperature;BMP_pressure;BME280_temperature;BME280_humidity;BME280_pressure;Samples;Min_cycle;Max_cycle;Signal;HPM_P1;HPM_P2
2023/04/25 00:01:14;;;;;;;23.52;6.75;;;;;;;5.17;100.00;100958.72;5062594;28;20040;-80
2023/04/25 00:03:39;;;;;;;23.30;6.43;;;;;;;5.10;100.00;100961.09;5062471;28;20060;-79
2023/04/25 00:06:06;;;;;;;22.63;6.70;;;;;;;5.06;100.00;100968.00;5064880;28;20425;-77
2023/04/25 00:08:32;;;;;;;23.35;6.70;;;;;;;5.00;100.00;100967.81;5061978;28;20459;-76
2023/04/25 00:10:58;;;;;;;24.50;6.53;;;;;;;4.89;100.00;100968.41;5064795;28;20033;-78
2023/04/25 00:13:25;;;;;;;23.55;6.68;;;;;;;4.79;100.00;100966.34;5094814;28;20025;-76
2023/04/25 00:15:52;;;;;;;21.77;6.28;;;;;;;4.76;100.00;100975.84;5063820;28;20040;-76
2023/04/25 00:18:18;;;;;;;23.50;6.80;;;;;;;4.65;100.00;100973.78;5062689;28;20036;-77
2023/04/25 00:20:46;;;;;;;26.77;6.90;;;;;;;4.58;100.00;100986.66;5060885;28;20119;-79
2023/04/25 00:23:17;;;;;;;22.13;6.75;;;;;;;4.50;100.00;100979.44;5063887;28;20056;-79
2023/04/25 00:25:43;;;;;;;23.02;6.90;;;;;;;4.48;100.00;100980.22;5062429;28;20040;-79
2023/04/25 00:28:08;;;;;;;24.77;7.07;;;;;;;4.51;100.00;100983.84;5064005;28;20025;-80
2023/04/25 00:30:33;;;;;;;22.65;6.80;;;;;;;4.48;100.00;100986.34;5060224;28;20487;-77
2023/04/25 00:32:58;;;;;;;23.50;7.30;;;;;;;4.46;100.00;100982.81;5057076;28;20118;-78
2023/04/25 00:35:24;;;;;;;24.27;7.18;;;;;;;4.42;100.00;100975.69;5063928;28;20031;-80
2023/04/25 00:37:49;;;;;;;23.10;6.78;;;;;;;4.32;100.00;100965.75;5062442;28;20060;-77
2023/04/25 00:40:15;;;;;;;24.02;7.07;;;;;;;4.26;100.00;100969.06;5062523;28;20468;-78
2023/04/25 00:42:41;;;;;;;24.45;7.15;;;;;;;4.22;100.00;100968.94;5063611;28;20116;-80
2023/04/25 00:45:12;;;;;;;23.35;7.40;;;;;;;4.11;100.00;100965.97;5061444;28;20377;-79
2023/04/25 00:47:38;;;;;;;23.80;7.75;;;;;;;4.01;100.00;100967.41;5063890;28;20486;-76
2023/04/25 00:50:03;;;;;;;23.27;7.78;;;;;;;3.96;100.00;100977.72;5060958;28;20029;-79
2023/04/25 00:52:29;;;;;;;23.42;7.20;;;;;;;3.93;100.00;100979.31;5057059;28;20029;-79
2023/04/25 00:54:54;;;;;;;24.70;7.70;;;;;;;3.95;100.00;100978.53;5063670;28;20441;-79
2023/04/25 00:57:20;;;;;;;24.35;8.00;;;;;;;3.97;100.00;100970.75;5061971;28;20486;-79
2023/04/25 00:59:46;;;;;;;24.45;8.20;;;;;;;4.00;100.00;100982.22;5062677;28;20036;-79
2023/04/25 01:02:12;;;;;;;25.88;8.80;;;;;;;4.03;100.00;100980.53;5063130;28;20464;-79
2023/04/25 01:04:38;;;;;;;24.75;8.23;;;;;;;4.02;100.00;100982.25;5061580;28;20043;-77
2023/04/25 01:07:04;;;;;;;25.55;8.60;;;;;;;4.01;100.00;100983.97;5063118;28;20107;-78
2023/04/25 01:09:31;;;;;;;25.75;8.10;;;;;;;3.95;100.00;100977.66;5060641;28;20112;-76
2023/04/25 01:11:57;;;;;;;24.58;8.05;;;;;;;3.86;100.00;100973.00;5063996;28;20024;-79
2023/04/25 01:14:23;;;;;;;24.85;7.78;;;;;;;3.82;100.00;100973.75;5061427;28;20029;-79
2023/04/25 01:16:48;;;;;;;25.45;8.45;;;;;;;3.75;100.00;100979.59;5062752;28;20037;-76
2023/04/25 01:19:16;;;;;;;26.08;8.40;;;;;;;3.71;100.00;100983.81;5062862;28;20036;-75
2023/04/25 01:21:42;;;;;;;26.95;8.27;;;;;;;3.70;100.00;100984.69;5061443;28;20059;-79
2023/04/25 01:24:08;;;;;;;24.70;8.07;;;;;;;3.71;100.00;100982.94;5063659;28;20119;-76
2023/04/25 01:26:34;;;;;;;24.90;8.23;;;;;;;3.71;100.00;100983.81;5061086;28;20029;-79
2023/04/25 01:29:00;;;;;;;26.40;8.05;;;;;;;3.77;100.00;100989.28;5064306;28;20424;-78
2023/04/25 01:31:27;;;;;;;28.75;8.68;;;;;;;3.86;100.00;100991.31;5060920;28;20025;-76
2023/04/25 01:33:52;;;;;;;25.67;8.25;;;;;;;3.87;100.00;100986.97;5067177;28;20032;-77
2023/04/25 01:36:18;;;;;;;26.50;7.85;;;;;;;3.86;100.00;100991.31;5066099;28;20024;-76
2023/04/25 01:38:43;;;;;;;26.13;8.10;;;;;;;3.87;100.00;100997.44;5065502;28;20150;-77
2023/04/25 01:41:09;;;;;;;24.17;7.80;;;;;;;3.82;100.00;100992.94;5067348;28;20024;-78
2023/04/25 01:43:35;;;;;;;26.48;8.27;;;;;;;3.82;100.00;100992.94;5064462;28;20029;-78
2023/04/25 01:46:01;;;;;;;25.02;8.13;;;;;;;3.78;100.00;100993.66;5067556;28;20535;-77
2023/04/25 01:48:26;;;;;;;27.05;8.68;;;;;;;3.75;100.00;100996.16;5097397;28;20098;-77
2023/04/25 01:50:51;;;;;;;26.08;8.85;;;;;;;3.72;100.00;101001.28;5066587;28;20372;-76
2023/04/25 01:53:17;;;;;;;24.63;8.27;;;;;;;3.71;100.00;101004.72;5065946;28;20028;-77
2023/04/25 01:55:42;;;;;;;25.55;8.23;;;;;;;3.69;100.00;101002.94;5065345;28;20060;-77
2023/04/25 01:58:09;;;;;;;25.63;9.05;;;;;;;3.75;100.00;100995.28;5065682;28;20077;-77
2023/04/25 02:00:38;;;;;;;24.40;8.50;;;;;;;3.81;100.00;100996.38;5064093;28;20448;-77
2023/04/25 02:03:04;;;;;;;26.90;9.02;;;;;;;3.86;100.00;101003.50;5067812;28;20029;-77
2023/04/25 02:05:35;;;;;;;27.95;8.93;;;;;;;3.87;100.00;101005.28;5063907;28;20556;-77
2023/04/25 02:08:00;;;;;;;25.33;8.75;;;;;;;3.88;100.00;101002.72;5066018;28;20039;-77
2023/04/25 02:10:26;;;;;;;26.92;8.93;;;;;;;3.88;100.00;101013.19;5063395;28;20111;-78
2023/04/25 02:12:51;;;;;;;26.45;8.73;;;;;;;3.88;100.00;101012.28;5064878;28;20029;-76
2023/04/25 02:15:16;;;;;;;28.58;9.13;;;;;;;3.86;100.00;101017.47;5065444;28;20028;-77
2023/04/25 02:17:42;;;;;;;29.08;9.30;;;;;;;3.79;100.00;101021.59;5064782;28;20033;-77
2023/04/25 02:20:08;;;;;;;27.48;8.98;;;;;;;3.83;100.00;101022.59;5066652;28;20036;-77
2023/04/25 02:22:35;;;;;;;26.20;9.35;;;;;;;3.79;100.00;101016.38;5063608;28;20377;-77
2023/04/25 02:25:00;;;;;;;24.70;9.05;;;;;;;3.71;100.00;101020.44;5067164;28;20032;-76
2023/04/25 02:27:25;;;;;;;26.40;8.63;;;;;;;3.67;100.00;101008.09;5064052;28;20025;-77
2023/04/25 02:29:51;;;;;;;30.65;9.25;;;;;;;3.69;100.00;101016.88;5065836;28;20418;-78
2023/04/25 02:32:17;;;;;;;26.05;8.68;;;;;;;3.67;100.00;101021.19;5065023;28;20024;-77
2023/04/25 02:34:45;;;;;;;26.23;8.73;;;;;;;3.62;100.00;101020.13;5064337;28;20036;-77
2023/04/25 02:37:10;;;;;;;29.52;9.00;;;;;;;3.57;100.00;101026.88;5098631;28;20418;-78
2023/04/25 02:39:36;;;;;;;26.17;8.75;;;;;;;3.53;100.00;101020.69;5063365;28;20025;-76
2023/04/25 02:42:02;;;;;;;26.30;8.40;;;;;;;3.52;100.00;101018.88;5066678;28;20357;-78
2023/04/25 02:44:27;;;;;;;26.73;8.50;;;;;;;3.53;100.00;101019.78;5063331;28;20036;-76
2023/04/25 02:46:53;;;;;;;27.77;9.00;;;;;;;3.48;100.00;101017.00;5065436;28;20033;-78
2023/04/25 02:49:18;;;;;;;27.02;9.27;;;;;;;3.46;100.00;101023.91;5064677;28;20021;-76
2023/04/25 02:51:44;;;;;;;27.70;8.13;;;;;;;3.41;100.00;101017.63;5064676;28;20056;-76
2023/04/25 02:54:09;;;;;;;26.90;8.45;;;;;;;3.40;100.00;101013.22;5065814;28;20020;-79
2023/04/25 02:56:35;;;;;;;27.92;8.48;;;;;;;3.36;100.00;101020.06;5063049;28;20059;-79
2023/04/25 02:59:00;;;;;;;28.85;9.15;;;;;;;3.34;100.00;101018.25;5066808;28;20029;-77
2023/04/25 03:01:25;;;;;;;26.40;8.23;;;;;;;3.34;100.00;101020.84;5063426;28;20029;-79
2023/04/25 03:03:51;;;;;;;27.00;8.05;;;;;;;3.35;100.00;101023.53;5065134;28;20032;-79
2023/04/25 03:06:16;;;;;;;26.52;8.65;;;;;;;3.31;100.00;101022.50;5064948;28;20039;-80
2023/04/25 03:08:41;;;;;;;25.52;8.10;;;;;;;3.29;100.00;101018.97;5063539;28;20040;-80
2023/04/25 03:11:07;;;;;;;25.08;8.13;;;;;;;3.33;100.00;101025.19;5066255;28;20103;-76
2023/04/25 03:13:32;;;;;;;25.13;8.13;;;;;;;3.33;100.00;101030.41;5062664;28;20060;-79
2023/04/25 03:15:58;;;;;;;27.27;7.88;;;;;;;3.34;100.00;101024.34;5065681;28;20059;-78
2023/04/25 03:18:23;;;;;;;24.98;8.05;;;;;;;3.32;100.00;101026.03;5063587;28;20060;-79
2023/04/25 03:20:48;;;;;;;26.08;8.20;;;;;;;3.35;100.00;101022.63;5064073;28;20067;-77
2023/04/25 03:23:14;;;;;;;25.63;8.20;;;;;;;3.34;100.00;101026.97;5064550;28;20059;-80
2023/04/25 03:25:39;;;;;;;27.15;8.48;;;;;;;3.37;100.00;101028.81;5063101;28;20369;-79
2023/04/25 03:28:05;;;;;;;27.65;8.60;;;;;;;3.40;100.00;101031.53;5065948;28;20025;-78
2023/04/25 03:30:30;;;;;;;28.45;8.57;;;;;;;3.40;100.00;101032.41;5062336;28;20069;-78
2023/04/25 03:32:55;;;;;;;26.17;8.13;;;;;;;3.43;100.00;101029.91;5065207;28;20119;-79
2023/04/25 03:35:21;;;;;;;27.48;8.27;;;;;;;3.45;100.00;101033.47;5063504;28;20470;-79
2023/04/25 03:37:46;;;;;;;27.20;8.05;;;;;;;3.49;100.00;101034.47;5062316;28;20476;-76
2023/04/25 03:40:12;;;;;;;27.80;7.82;;;;;;;3.50;100.00;101031.03;5064910;28;20037;-80
2023/04/25 03:42:37;;;;;;;26.13;8.18;;;;;;;3.51;100.00;101024.97;5061066;28;20032;-78
2023/04/25 03:45:03;;;;;;;26.58;7.68;;;;;;;3.55;100.00;101025.97;5065757;28;20020;-76
2023/04/25 03:47:28;;;;;;;26.35;7.80;;;;;;;3.56;100.00;101028.63;5062286;28;20116;-77
2023/04/25 03:49:53;;;;;;;25.50;7.97;;;;;;;3.57;100.00;101019.03;5064215;28;20031;-75
2023/04/25 03:52:19;;;;;;;27.90;8.35;;;;;;;3.59;100.00;101031.34;5063757;28;20032;-77
2023/04/25 03:54:44;;;;;;;25.10;8.02;;;;;;;3.59;100.00;101028.72;5062323;28;20020;-76
2023/04/25 03:57:10;;;;;;;25.33;7.80;;;;;;;3.63;100.00;101042.81;5064632;28;20548;-77
2023/04/25 03:59:35;;;;;;;27.83;8.15;;;;;;;3.65;100.00;101036.78;5061907;28;20063;-77
2023/04/25 04:02:01;;;;;;;27.25;8.30;;;;;;;3.64;100.00;101034.13;5060483;28;20060;-77
2023/04/25 04:04:26;;;;;;;26.33;7.90;;;;;;;3.69;100.00;101035.19;5064654;28;20424;-79
2023/04/25 04:06:52;;;;;;;26.50;7.72;;;;;;;3.70;100.00;101039.59;5062974;28;20115;-77
2023/04/25 04:09:18;;;;;;;24.70;7.70;;;;;;;3.71;100.00;101050.94;5063013;28;20029;-77
2023/04/25 04:11:43;;;;;;;27.95;7.75;;;;;;;3.71;100.00;101049.19;5063948;28;20115;-78
2023/04/25 04:14:10;;;;;;;27.23;7.90;;;;;;;3.69;100.00;101048.25;5062103;28;20093;-76
2023/04/25 04:16:35;;;;;;;28.98;7.88;;;;;;;3.72;100.00;101050.09;5064823;28;20487;-77
2023/04/25 04:19:01;;;;;;;26.00;7.65;;;;;;;3.74;100.00;101056.25;5061291;28;20059;-77
2023/04/25 04:21:27;;;;;;;28.02;7.85;;;;;;;3.81;100.00;101060.88;5063902;28;20099;-77
2023/04/25 04:23:54;;;;;;;25.67;7.63;;;;;;;3.83;100.00;101057.50;5062508;28;20029;-78
2023/04/25 04:26:23;;;;;;;26.58;7.78;;;;;;;3.79;100.00;101058.22;5063041;28;20025;-76
2023/04/25 04:28:50;;;;;;;25.23;7.47;;;;;;;3.83;100.00;101061.84;5063219;28;20040;-76
2023/04/25 04:31:15;;;;;;;26.20;7.43;;;;;;;3.81;100.00;101059.13;5062468;28;20060;-76
2023/04/25 04:33:41;;;;;;;24.40;7.22;;;;;;;3.87;100.00;101062.81;5062689;28;20083;-78
2023/04/25 04:36:07;;;;;;;25.13;7.10;;;;;;;3.88;100.00;101067.22;5061164;28;20024;-78
2023/04/25 04:38:33;;;;;;;28.33;7.60;;;;;;;3.94;100.00;101060.47;5064557;28;20100;-77
2023/04/25 04:40:58;;;;;;;26.08;6.80;;;;;;;3.94;100.00;101062.19;5061862;28;20040;-77
2023/04/25 04:43:24;;;;;;;27.23;7.43;;;;;;;3.93;100.00;101069.16;5063331;28;20028;-76
2023/04/25 04:45:50;;;;;;;25.58;7.47;;;;;;;3.96;100.00;101068.34;5062570;28;20384;-76
2023/04/25 04:48:16;;;;;;;24.95;6.82;;;;;;;3.95;100.00;101071.84;5062332;28;20029;-77
2023/04/25 04:50:44;;;;;;;26.63;7.03;;;;;;;3.90;100.00;101076.00;5063638;28;20027;-77
2023/04/25 04:53:10;;;;;;;24.73;6.55;;;;;;;3.80;100.00;101078.31;5061287;28;20035;-77
2023/04/25 04:55:35;;;;;;;24.58;6.90;;;;;;;3.73;100.00;101076.31;5064550;28;20037;-77
2023/04/25 04:58:01;;;;;;;25.73;6.85;;;;;;;3.71;100.00;101080.56;5060821;28;20033;-77
2023/04/25 05:00:27;;;;;;;25.83;6.75;;;;;;;3.73;100.00;101086.75;5063670;28;20455;-79
2023/04/25 05:02:52;;;;;;;27.88;7.45;;;;;;;3.86;100.00;101093.31;5060990;28;20120;-78
2023/04/25 05:05:18;;;;;;;25.33;6.95;;;;;;;3.96;100.00;101089.28;5062200;28;20108;-78
2023/04/25 05:07:43;;;;;;;26.25;7.22;;;;;;;4.04;100.00;101100.91;5063299;28;20056;-80
2023/04/25 05:10:09;;;;;;;27.40;6.95;;;;;;;4.08;100.00;101105.44;5061240;28;20396;-77
2023/04/25 05:12:34;;;;;;;23.45;6.78;;;;;;;4.16;100.00;101103.06;5064124;28;20032;-77
2023/04/25 05:15:00;;;;;;;23.90;6.80;;;;;;;4.23;100.00;101114.66;5060877;28;20083;-78
2023/04/25 05:17:25;;;;;;;24.73;6.75;;;;;;;4.27;100.00;101112.19;5063244;28;20468;-78
2023/04/25 05:19:50;;;;;;;25.55;7.10;;;;;;;4.32;100.00;101118.47;5062022;28;20032;-80
2023/04/25 05:22:16;;;;;;;26.42;6.88;;;;;;;4.37;100.00;101110.78;5061369;28;20047;-80
2023/04/25 05:24:41;;;;;;;23.45;6.72;;;;;;;4.40;100.00;101125.69;5063635;28;20036;-79
2023/04/25 05:27:07;;;;;;;26.80;6.70;;;;;;;4.46;100.00;101124.16;5060618;28;20434;-77
2023/04/25 05:29:32;;;;;;;24.27;6.70;;;;;;;4.47;100.00;101119.81;5056580;28;20442;-78
2023/04/25 05:31:57;;;;;;;25.48;6.85;;;;;;;4.48;100.00;101126.84;5063327;28;20111;-79
2023/04/25 05:34:23;;;;;;;23.42;6.30;;;;;;;4.52;100.00;101120.88;5061763;28;20115;-77
2023/04/25 05:36:48;;;;;;;24.05;6.60;;;;;;;4.59;100.00;101129.81;5062141;28;20060;-78
2023/04/25 05:39:17;;;;;;;25.60;6.00;;;;;;;4.67;100.00;101123.97;5061686;28;20029;-77
2023/04/25 05:41:43;;;;;;;25.15;6.70;;;;;;;4.77;100.00;101129.53;5056438;28;20032;-73
2023/04/25 05:44:09;;;;;;;23.70;6.18;;;;;;;4.85;100.00;101133.31;5059451;28;20040;-77
2023/04/25 05:46:34;;;;;;;23.85;6.00;;;;;;;4.91;100.00;101130.88;5060852;28;20029;-77
2023/04/25 05:48:59;;;;;;;26.25;6.20;;;;;;;4.96;100.00;101133.66;5064089;28;20028;-78
2023/04/25 05:51:25;;;;;;;23.65;6.25;;;;;;;5.03;100.00;101138.25;5058533;28;20112;-70
2023/04/25 05:53:51;;;;;;;22.92;6.25;;;;;;;5.10;100.00;101145.44;5062971;28;20033;-75
2023/04/25 05:56:16;;;;;;;25.60;6.28;;;;;;;5.17;100.00;101150.03;5062555;28;20029;-75
2023/04/25 05:58:41;;;;;;;24.98;6.25;;;;;;;5.21;100.00;101157.16;5061164;28;20017;-75
2023/04/25 06:01:07;;;;;;;24.63;6.43;;;;;;;5.28;100.00;101158.22;5056318;28;20455;-76
2023/04/25 06:03:32;;;;;;;23.50;5.88;;;;;;;5.33;100.00;101163.59;5063009;28;20383;-74
2023/04/25 06:05:57;;;;;;;22.65;6.30;;;;;;;5.33;100.00;101159.28;5061108;28;20068;-75
2023/04/25 06:08:23;;;;;;;26.80;6.65;;;;;;;5.39;100.00;101174.31;5062897;28;20162;-75
2023/04/25 06:10:48;;;;;;;23.75;6.63;;;;;;;5.45;100.00;101169.25;5058790;28;20033;-74
2023/04/25 06:13:14;;;;;;;24.52;6.43;;;;;;;5.49;100.00;101171.13;5063582;28;20036;-74
2023/04/25 06:15:39;;;;;;;23.42;6.40;;;;;;;5.57;100.00;101171.34;5063422;28;20033;-74
2023/04/25 06:18:04;;;;;;;22.25;6.32;;;;;;;5.62;100.00;101175.00;5062404;28;20461;-74
2023/04/25 06:20:30;;;;;;;21.38;6.07;;;;;;;5.65;100.00;101171.56;5066926;28;20402;-77
2023/04/25 06:22:55;;;;;;;23.50;6.50;;;;;;;5.56;100.00;101172.19;5066429;28;20056;-75
2023/04/25 06:25:20;;;;;;;23.83;6.28;;;;;;;5.47;100.00;101174.53;5065954;28;20063;-77
2023/04/25 06:27:46;;;;;;;23.65;6.28;;;;;;;5.37;100.00;101181.22;5065289;28;20029;-73
2023/04/25 06:30:12;;;;;;;23.15;6.60;;;;;;;5.37;100.00;101186.47;5066418;28;20388;-75
2023/04/25 06:32:38;;;;;;;20.98;5.80;;;;;;;5.37;100.00;101175.97;5063026;28;20025;-76
2023/04/25 06:35:04;;;;;;;22.05;5.40;;;;;;;5.29;100.00;101174.88;5068603;28;20033;-75
2023/04/25 06:37:30;;;;;;;21.67;5.05;;;;;;;5.32;100.00;101182.81;5064505;28;20051;-79
2023/04/25 06:39:55;;;;;;;21.00;4.90;;;;;;;5.30;100.00;101184.50;5063707;28;20475;-73
2023/04/25 06:42:20;;;;;;;20.85;4.85;;;;;;;5.36;100.00;101184.72;5064462;28;20028;-75
2023/04/25 06:44:46;;;;;;;21.45;4.78;;;;;;;5.35;100.00;101190.78;5067088;28;20483;-71
2023/04/25 06:47:11;;;;;;;20.90;4.53;;;;;;;5.38;100.00;101193.50;5065034;28;20025;-77
2023/04/25 06:49:36;;;;;;;19.85;4.60;;;;;;;5.49;100.00;101194.72;5063368;28;20061;-74
2023/04/25 06:52:02;;;;;;;20.25;4.35;;;;;;;5.45;100.00;101200.72;5063582;28;20036;-75
2023/04/25 06:54:29;;;;;;;19.20;4.10;;;;;;;5.50;100.00;101206.09;5061786;28;20036;-74
2023/04/25 06:56:55;;;;;;;21.02;4.53;;;;;;;5.60;100.00;101213.41;5065938;28;20150;-75
2023/04/25 06:59:20;;;;;;;19.23;4.22;;;;;;;5.64;100.00;101199.53;5058704;28;20147;-74
2023/04/25 07:01:46;;;;;;;18.50;3.72;;;;;;;5.65;100.00;101200.41;5061395;28;20514;-72
2023/04/25 07:04:11;;;;;;;19.35;4.10;;;;;;;5.67;100.00;101199.63;5066878;28;20052;-73
2023/04/25 07:06:42;;;;;;;19.13;4.13;;;;;;;5.69;100.00;101197.94;5066114;28;20025;-75
2023/04/25 07:09:11;;;;;;;19.70;3.70;;;;;;;5.72;100.00;101199.75;5055785;28;20033;-77
2023/04/25 07:11:36;;;;;;;17.17;3.47;;;;;;;5.83;100.00;101206.22;5066225;28;20025;-73
2023/04/25 07:14:02;;;;;;;17.13;3.75;;;;;;;5.88;100.00;101202.00;5063570;28;20094;-76
2023/04/25 07:16:27;;;;;;;18.55;3.67;;;;;;;5.94;100.00;101209.16;5061560;28;20040;-74
2023/04/25 07:18:53;;;;;;;19.30;3.30;;;;;;;6.02;100.00;101206.81;5064288;28;20056;-76
2023/04/25 07:21:18;;;;;;;18.73;3.60;;;;;;;6.11;100.00;101214.94;5066189;28;20040;-76
2023/04/25 07:23:44;;;;;;;19.58;3.45;;;;;;;6.17;100.00;101212.47;5066350;28;20065;-78
2023/04/25 07:26:09;;;;;;;19.33;3.80;;;;;;;6.27;100.00;101216.25;5062766;28;20033;-76
2023/04/25 07:28:34;;;;;;;17.02;3.40;;;;;;;6.37;100.00;101222.66;5065261;28;20027;-78
2023/04/25 07:31:00;;;;;;;18.33;3.25;;;;;;;6.55;100.00;101228.41;5068469;28;20451;-77
2023/04/25 07:33:25;;;;;;;17.35;3.40;;;;;;;6.64;100.00;101227.78;5063821;28;20029;-78
2023/04/25 07:35:51;;;;;;;18.00;3.40;;;;;;;6.89;100.00;101238.94;5060414;28;20029;-79
2023/04/25 07:38:17;;;;;;;17.10;3.40;;;;;;;7.05;100.00;101240.16;5067001;28;20067;-78
2023/04/25 07:40:42;;;;;;;17.98;3.58;;;;;;;7.22;100.00;101238.84;5062201;28;20120;-74
2023/04/25 07:43:07;;;;;;;16.05;3.33;;;;;;;7.36;100.00;101246.22;5064847;28;20025;-75
2023/04/25 07:45:33;;;;;;;18.80;3.28;;;;;;;7.41;100.00;101239.28;5064396;28;20074;-75
2023/04/25 07:47:58;;;;;;;16.88;3.00;;;;;;;7.58;100.00;101244.97;5066599;28;20035;-74
2023/04/25 07:50:24;;;;;;;17.30;3.40;;;;;;;7.78;100.00;101253.31;5059540;28;20395;-76
2023/04/25 07:52:49;;;;;;;17.95;3.15;;;;;;;8.06;100.00;101246.88;5066387;28;20041;-75
2023/04/25 07:55:14;;;;;;;16.55;3.30;;;;;;;8.44;100.00;101249.44;5062565;28;20107;-75
2023/04/25 07:57:40;;;;;;;18.80;3.40;;;;;;;8.66;91.00;101261.28;5064143;28;20036;-74
2023/04/25 08:00:09;;;;;;;18.52;3.28;;;;;;;8.76;86.37;101264.09;5063624;28;20413;-75
2023/04/25 08:02:34;;;;;;;16.17;3.22;;;;;;;8.93;85.45;101254.75;5066133;28;20033;-76
2023/04/25 08:05:00;;;;;;;17.02;3.42;;;;;;;9.30;84.02;101254.47;5066354;28;20021;-75
2023/04/25 08:07:25;;;;;;;17.38;3.25;;;;;;;9.72;85.41;101263.91;5061620;28;20582;-75
2023/04/25 08:09:50;;;;;;;16.98;3.47;;;;;;;9.79;76.56;101270.19;5064801;28;20549;-75
2023/04/25 08:12:16;;;;;;;15.88;3.00;;;;;;;9.75;72.27;101275.41;5062520;28;20029;-75
2023/04/25 08:14:41;;;;;;;16.88;3.08;;;;;;;9.46;76.60;101271.44;5061840;28;20108;-76
2023/04/25 08:17:06;;;;;;;19.73;3.40;;;;;;;9.28;79.17;101278.19;5063968;28;20028;-74
2023/04/25 08:19:32;;;;;;;18.63;3.30;;;;;;;9.20;77.45;101277.19;5061873;28;20035;-75
2023/04/25 08:21:57;;;;;;;20.30;3.38;;;;;;;9.19;77.65;101281.56;5064597;28;20174;-75
2023/04/25 08:24:23;;;;;;;18.20;3.50;;;;;;;9.31;76.60;101278.25;5061752;28;20381;-73
2023/04/25 08:26:48;;;;;;;19.52;3.42;;;;;;;9.02;76.16;101288.31;5064095;28;20486;-78
2023/04/25 08:29:14;;;;;;;19.17;3.33;;;;;;;9.20;76.30;101287.72;5062669;28;20490;-78
2023/04/25 08:31:40;;;;;;;17.63;3.40;;;;;;;9.38;76.09;101292.44;5063153;28;20420;-78
2023/04/25 08:34:05;;;;;;;16.58;3.13;;;;;;;9.77;76.30;101300.09;5063692;28;20052;-77
2023/04/25 08:36:31;;;;;;;18.63;3.45;;;;;;;10.17;74.68;101299.75;5061660;28;20025;-76
2023/04/25 08:38:56;;;;;;;17.63;3.42;;;;;;;10.37;71.24;101305.34;5064685;28;20055;-78
2023/04/25 08:41:22;;;;;;;17.27;3.20;;;;;;;10.52;70.86;101306.41;5060973;28;20029;-78
2023/04/25 08:43:48;;;;;;;17.52;3.10;;;;;;;10.64;69.06;101306.53;5063715;28;20396;-79
2023/04/25 08:46:17;;;;;;;18.95;3.20;;;;;;;10.84;68.44;101312.03;5062333;28;20107;-78
2023/04/25 08:48:45;;;;;;;19.00;3.30;;;;;;;10.62;65.79;101313.56;5062963;28;20033;-77
2023/04/25 08:51:21;;;;;;;17.10;3.60;;;;;;;10.53;66.84;101318.72;5062956;28;20078;-78
2023/04/25 08:53:48;;;;;;;14.30;2.95;;;;;;;10.61;70.04;101312.66;5063447;28;20024;-78
2023/04/25 08:56:17;;;;;;;16.52;3.20;;;;;;;10.22;69.42;101328.88;5062256;28;20379;-81
2023/04/25 08:58:47;;;;;;;16.98;3.40;;;;;;;10.30;70.66;101338.69;5060982;28;20036;-70
2023/04/25 09:01:12;;;;;;;16.42;2.97;;;;;;;10.58;66.71;101344.34;5062038;28;20021;-79
2023/04/25 09:03:38;;;;;;;18.05;3.10;;;;;;;10.69;64.98;101338.28;5062179;28;20036;-75
2023/04/25 09:06:04;;;;;;;15.95;3.05;;;;;;;10.75;66.98;101344.56;5060185;28;20029;-78
2023/04/25 09:08:30;;;;;;;17.67;2.90;;;;;;;11.31;64.12;101361.00;5064045;28;20482;-79
2023/04/25 09:10:55;;;;;;;17.25;3.00;;;;;;;11.68;62.69;101361.34;5064472;28;20115;-75
2023/04/25 09:13:26;;;;;;;16.42;2.80;;;;;;;11.44;58.73;101357.59;5063954;28;20032;-79
2023/04/25 09:15:57;;;;;;;14.50;2.80;;;;;;;11.59;59.20;101363.91;5064435;28;20035;-78
2023/04/25 09:18:31;;;;;;;22.75;3.30;;;;;;;11.67;55.99;101370.16;5062750;28;20112;-74
2023/04/25 09:21:05;;;;;;;14.77;2.80;;;;;;;11.51;58.13;101377.97;5058572;28;20033;-75
2023/04/25 09:23:30;;;;;;;17.73;3.20;;;;;;;11.61;57.47;101378.94;5060976;28;20071;-74
2023/04/25 09:25:56;;;;;;;14.05;2.85;;;;;;;12.51;57.35;101368.97;5063783;28;20471;-78
2023/04/25 09:28:26;;;;;;;16.52;2.85;;;;;;;13.28;55.79;101382.50;5063966;28;20032;-77
2023/04/25 09:30:58;;;;;;;15.73;2.67;;;;;;;12.71;52.53;101387.59;5062070;28;20032;-76
2023/04/25 09:33:31;;;;;;;;;;;;;;;12.99;55.93;101393.00;5059348;28;20036;-76
2023/04/25 09:36:26;;;;;;;16.33;3.20;;;;;;;13.19;54.44;101378.06;5060359;28;19913;-76
2023/04/25 09:38:51;;;;;;;15.43;2.75;;;;;;;13.65;50.79;101379.88;5062981;28;20041;-79
2023/04/25 09:41:22;;;;;;;14.55;2.63;;;;;;;14.91;49.77;101386.72;5061656;28;20170;-79
2023/04/25 09:43:49;;;;;;;14.83;2.90;;;;;;;14.52;45.42;101374.41;5062692;28;20435;-76
2023/04/25 09:46:15;;;;;;;15.35;2.90;;;;;;;13.47;49.00;101383.44;5062109;28;20033;-76
2023/04/25 09:48:49;;;;;;;10.95;2.63;;;;;;;13.05;51.48;101385.97;5062963;28;20025;-75
2023/04/25 09:51:14;;;;;;;14.52;2.90;;;;;;;12.54;52.64;101392.84;5063024;28;20040;-75
2023/04/25 09:53:46;;;;;;;14.57;3.05;;;;;;;12.12;53.62;101389.06;5059268;28;20025;-74
2023/04/25 09:56:13;;;;;;;15.27;3.13;;;;;;;12.02;52.55;101398.72;5066245;28;20034;-76
2023/04/25 09:58:40;;;;;;;14.60;2.95;;;;;;;11.50;53.14;101399.13;5064403;28;20478;-73
2023/04/25 10:01:07;;;;;;;15.45;3.00;;;;;;;12.47;53.19;101399.88;5067846;28;20032;-72
2023/04/25 10:03:41;;;;;;;11.10;2.53;;;;;;;13.52;47.45;101394.94;5066592;28;20492;-74
2023/04/25 10:06:11;;;;;;;12.05;2.33;;;;;;;14.28;45.09;101397.53;5064004;28;20533;-75
2023/04/25 10:08:38;;;;;;;9.73;2.40;;;;;;;15.86;42.67;101405.63;5068495;28;20053;-72
2023/04/25 10:11:08;;;;;;;10.57;2.53;;;;;;;16.85;41.16;101397.44;5067144;28;20062;-75
2023/04/25 10:13:35;;;;;;;12.27;2.35;;;;;;;17.42;40.95;101398.47;5064370;28;20029;-75
2023/04/25 10:16:04;;;;;;;10.68;2.50;;;;;;;18.06;38.33;101398.34;5067303;28;20355;-72
2023/04/25 10:18:31;;;;;;;9.18;2.40;;;;;;;17.93;35.67;101395.88;5058629;28;20016;-76
2023/04/25 10:20:59;;;;;;;13.10;2.40;;;;;;;18.22;37.29;101393.59;5092134;28;20471;-73
2023/04/25 10:23:25;;;;;;;8.50;2.30;;;;;;;19.23;36.99;101392.41;5055093;28;20128;-73
2023/04/25 10:25:52;;;;;;;12.45;2.40;;;;;;;19.52;34.78;101389.03;5055255;28;20532;-73
2023/04/25 10:28:19;;;;;;;10.80;2.25;;;;;;;19.97;33.56;101385.28;5055795;28;20025;-73
2023/04/25 10:31:07;;;;;;;7.50;2.10;;;;;;;19.25;35.14;101386.13;5055205;28;20029;-74
2023/04/25 10:33:41;;;;;;;10.32;2.30;;;;;;;18.33;36.99;101388.91;5060209;28;20013;-75
2023/04/25 10:36:33;;;;;;;10.15;2.20;;;;;;;17.41;37.14;101386.88;5066132;28;20029;-74
2023/04/25 10:39:06;;;;;;;8.57;2.15;;;;;;;16.52;38.70;101402.28;5057607;28;20068;-75
2023/04/25 10:41:45;;;;;;;15.25;2.60;;;;;;;16.37;39.25;101405.16;5059820;28;20025;-74
2023/04/25 10:44:11;;;;;;;11.02;2.45;;;;;;;16.14;38.70;101408.91;5065470;28;20037;-74
2023/04/25 10:46:37;;;;;;;8.05;2.30;;;;;;;16.60;39.48;101391.53;5064073;28;20033;-71
2023/04/25 10:49:03;;;;;;;11.63;2.67;;;;;;;16.31;37.39;101406.09;5066522;28;20499;-74
2023/04/25 10:51:31;;;;;;;12.32;2.60;;;;;;;16.16;40.49;101400.91;5063473;28;20136;-75
2023/04/25 10:53:58;;;;;;;11.15;2.80;;;;;;;15.83;40.46;101397.69;5066690;28;20033;-74
2023/04/25 10:56:27;;;;;;;12.65;2.75;;;;;;;15.43;42.38;101398.81;5063415;28;20025;-74
2023/04/25 10:59:03;;;;;;;11.70;2.60;;;;;;;15.10;42.51;101405.22;5065852;28;20446;-75
2023/04/25 11:02:04;;;;;;;12.40;2.65;;;;;;;14.53;44.77;101395.69;5059075;28;20115;-72
2023/04/25 11:04:35;;;;;;;14.38;2.65;;;;;;;14.39;43.39;101406.38;5065662;28;20509;-73
2023/04/25 11:07:06;;;;;;;14.95;3.00;;;;;;;14.37;44.20;101405.50;5059258;28;20025;-73
2023/04/25 11:09:33;;;;;;;14.63;2.70;;;;;;;13.84;44.23;101404.69;5091802;28;20033;-74
2023/04/25 11:12:00;;;;;;;14.55;3.00;;;;;;;12.99;46.06;101411.59;5054523;28;20032;-74
2023/04/25 11:14:26;;;;;;;16.00;3.03;;;;;;;12.43;47.89;101398.09;5065854;28;20040;-74